Time;durP1;ratioP1;P1;durP2;ratioP2;P2;SDS_P1;SDS_P2;PMS_P1;PMS_P2;Temp;Humidity;BMP_temperature;BMP_pressure;BME280_temperature;BME280_humidity;BME280_pressure;Samples;Min_cycle;Max_cycle;Signal;HPM_P1;HPM_P2
2022/11/19 00:01:56;;;;;;;16.45;6.70;;;6.20;99.90;;;;;;5050544;28;20029;-73
2022/11/19 00:04:22;;;;;;;14.98;6.80;;;6.10;99.90;;;;;;5039220;28;20037;-73
2022/11/19 00:06:49;;;;;;;13.20;6.95;;;6.10;99.90;;;;;;5049515;28;20029;-74
2022/11/19 00:09:15;;;;;;;15.68;7.13;;;6.00;99.90;;;;;;5047991;28;20025;-73
2022/11/19 00:14:25;;;;;;;14.95;7.72;;;6.00;99.90;;;;;;5037644;28;20075;-74
2022/11/19 00:16:51;;;;;;;14.43;6.88;;;6.00;99.90;;;;;;5047767;28;20033;-73
2022/11/19 00:19:16;;;;;;;16.42;7.25;;;6.00;99.90;;;;;;5038711;28;20373;-74
2022/11/19 00:21:42;;;;;;;14.40;7.35;;;6.00;99.90;;;;;;5042023;28;20414;-74
2022/11/19 00:24:08;;;;;;;17.58;7.10;;;6.00;99.90;;;;;;5044382;28;20053;-74
2022/11/19 00:26:33;;;;;;;16.80;6.22;;;6.00;99.90;;;;;;5043049;28;20029;-74
2022/11/19 00:28:59;;;;;;;11.45;5.43;;;6.00;99.90;;;;;;5031686;28;20532;-73
2022/11/19 00:31:25;;;;;;;9.38;4.55;;;6.00;99.90;;;;;;5034924;28;20040;-73
2022/11/19 00:33:53;;;;;;;10.90;3.97;;;6.00;99.90;;;;;;5031115;28;20033;-73
2022/11/19 00:36:19;;;;;;;6.55;3.20;;;6.00;99.90;;;;;;5031535;28;20068;-74
2022/11/19 00:38:44;;;;;;;5.82;2.70;;;6.00;99.90;;;;;;5035420;28;20032;-72
2022/11/19 00:41:10;;;;;;;6.75;1.83;;;6.00;99.90;;;;;;5031598;28;20029;-73
2022/11/19 00:43:51;;;;;;;4.93;1.90;;;6.00;99.90;;;;;;5040673;28;20037;-73
2022/11/19 00:46:18;;;;;;;4.63;1.90;;;6.00;99.90;;;;;;5046211;28;20033;-73
2022/11/19 00:48:44;;;;;;;3.05;1.30;;;6.00;99.90;;;;;;5040153;28;20032;-73
2022/11/19 00:51:10;;;;;;;3.92;1.60;;;6.00;99.90;;;;;;5027708;28;20939;-73
2022/11/19 00:53:36;;;;;;;3.80;1.42;;;5.90;99.90;;;;;;5045873;28;20472;-74
2022/11/19 00:56:04;;;;;;;3.47;1.40;;;6.00;99.90;;;;;;5036768;28;20023;-74
2022/11/19 00:58:30;;;;;;;4.50;1.50;;;6.00;99.90;;;;;;5038475;28;20394;-74
2022/11/19 01:00:56;;;;;;;3.72;1.13;;;6.00;99.90;;;;;;5030238;28;20037;-73
2022/11/19 01:03:23;;;;;;;1.77;1.08;;;5.90;99.90;;;;;;5049418;28;20390;-73
2022/11/19 01:05:48;;;;;;;3.03;1.30;;;6.00;99.90;;;;;;5038965;28;20033;-74
2022/11/19 01:08:14;;;;;;;3.53;1.42;;;5.90;99.90;;;;;;5031621;28;20713;-73
2022/11/19 01:10:40;;;;;;;3.70;1.80;;;5.90;99.90;;;;;;5037281;28;20036;-73
2022/11/19 01:16:10;;;;;;;3.55;1.80;;;5.90;99.90;;;;;;5021904;28;20160;-73
2022/11/19 01:18:38;;;;;;;5.65;2.47;;;6.00;99.90;;;;;;5013085;28;20593;-73
2022/11/19 01:21:05;;;;;;;5.00;2.25;;;6.00;99.90;;;;;;5037006;28;20113;-73
2022/11/19 01:23:32;;;;;;;4.65;2.85;;;6.00;99.90;;;;;;5040262;28;20084;-74
2022/11/19 01:25:57;;;;;;;5.25;2.92;;;6.00;99.90;;;;;;5030944;28;20033;-73
2022/11/19 01:28:23;;;;;;;7.32;3.40;;;6.00;99.90;;;;;;5027054;28;20044;-74
2022/11/19 01:30:49;;;;;;;5.68;3.08;;;6.00;99.90;;;;;;5037857;28;20654;-73
2022/11/19 01:33:14;;;;;;;8.48;3.60;;;6.00;99.90;;;;;;5046121;28;20123;-74
2022/11/19 01:35:40;;;;;;;8.15;3.40;;;6.00;99.90;;;;;;5030367;28;20796;-74
2022/11/19 01:38:06;;;;;;;7.55;3.65;;;6.00;99.90;;;;;;5037342;28;20071;-72
2022/11/19 01:40:39;;;;;;;5.68;3.47;;;6.00;99.90;;;;;;5037226;28;20482;-73
2022/11/19 01:43:04;;;;;;;7.68;3.67;;;6.00;99.90;;;;;;5035003;28;20044;-74
2022/11/19 01:45:36;;;;;;;8.52;3.67;;;6.00;99.90;;;;;;5029216;28;20037;-73
2022/11/19 01:48:28;;;;;;;10.93;4.20;;;6.00;99.90;;;;;;5033873;28;20060;-73
2022/11/19 01:51:17;;;;;;;8.13;4.13;;;6.00;99.90;;;;;;5030431;28;20697;-73
2022/11/19 01:53:46;;;;;;;10.35;4.50;;;6.00;99.90;;;;;;5032092;28;20045;-73
2022/11/19 01:56:13;;;;;;;7.68;4.05;;;6.00;99.90;;;;;;5029530;28;20030;-73
2022/11/19 01:58:46;;;;;;;9.68;4.40;;;6.00;99.90;;;;;;5039598;28;20033;-73
2022/11/19 02:01:13;;;;;;;11.32;4.72;;;6.00;99.90;;;;;;5029898;28;20121;-73
2022/11/19 02:03:39;;;;;;;10.18;4.75;;;6.00;99.90;;;;;;5038410;28;20039;-74
2022/11/19 02:06:06;;;;;;;10.40;5.13;;;6.00;99.90;;;;;;5044280;28;20139;-73
2022/11/19 02:08:42;;;;;;;13.80;5.40;;;6.00;99.90;;;;;;5032658;28;20040;-74
2022/11/19 02:11:34;;;;;;;11.27;5.07;;;6.00;99.90;;;;;;5032141;28;20033;-73
2022/11/19 02:14:23;;;;;;;13.10;5.47;;;6.00;99.90;;;;;;5029729;28;20045;-74
2022/11/19 02:16:55;;;;;;;8.60;4.18;;;6.00;99.90;;;;;;5021105;28;20045;-74
2022/11/19 02:19:59;;;;;;;12.88;5.78;;;6.00;99.90;;;;;;5046784;28;20102;-74
2022/11/19 02:22:33;;;;;;;15.88;6.13;;;6.00;99.90;;;;;;5019484;28;20037;-73
2022/11/19 02:25:37;;;;;;;14.35;6.75;;;6.00;99.90;;;;;;5040823;28;20214;-73
2022/11/19 02:28:38;;;;;;;14.73;6.57;;;6.00;99.90;;;;;;5018704;28;20064;-73
2022/11/19 02:31:13;;;;;;;16.08;7.32;;;6.00;99.90;;;;;;5037575;28;21234;-73
2022/11/19 02:33:50;;;;;;;16.83;7.95;;;6.00;99.90;;;;;;5048869;28;20436;-74
2022/11/19 02:36:32;;;;;;;19.35;7.97;;;6.00;99.90;;;;;;5030379;28;20044;-73
2022/11/19 02:39:39;;;;;;;17.08;8.45;;;6.00;99.90;;;;;;5009707;28;20135;-74
2022/11/19 02:42:17;;;;;;;20.98;8.45;;;6.00;99.90;;;;;;5019528;28;20187;-74
2022/11/19 02:45:05;;;;;;;20.05;8.73;;;6.00;99.90;;;;;;5028364;28;20386;-74
2022/11/19 02:47:40;;;;;;;17.35;8.40;;;6.00;99.90;;;;;;5038829;28;20028;-74
2022/11/19 02:50:16;;;;;;;16.38;8.15;;;6.00;99.90;;;;;;5032592;28;20037;-72
2022/11/19 02:52:44;;;;;;;20.15;8.73;;;6.00;99.90;;;;;;5028859;28;20029;-74
2022/11/19 02:55:15;;;;;;;17.15;8.10;;;6.00;99.90;;;;;;5040485;28;20445;-74
2022/11/19 02:57:44;;;;;;;20.73;9.15;;;6.00;99.90;;;;;;5030358;28;20033;-73
2022/11/19 03:05:56;;;;;;;21.08;8.75;;;6.00;99.90;;;;;;5046142;28;20047;-71
2022/11/19 03:08:22;;;;;;;19.60;8.20;;;6.00;99.90;;;;;;5043230;28;20105;-74
2022/11/19 03:10:58;;;;;;;17.02;7.68;;;6.00;99.90;;;;;;5026959;28;20053;-73
2022/11/19 03:16:40;;;;;;;18.25;6.93;;;6.00;99.90;;;;;;5028596;28;20040;-74
2022/11/19 03:19:16;;;;;;;13.57;7.18;;;6.00;99.90;;;;;;5041033;28;20028;-73
2022/11/19 03:21:51;;;;;;;15.65;7.95;;;6.00;99.90;;;;;;5048028;28;20112;-74
2022/11/19 03:24:26;;;;;;;15.30;7.05;;;6.00;99.90;;;;;;5037827;28;20151;-73
2022/11/19 03:27:08;;;;;;;18.02;8.00;;;6.00;99.90;;;;;;5030687;28;20036;-74
2022/11/19 03:29:37;;;;;;;16.13;7.63;;;6.00;99.90;;;;;;5015757;28;20084;-74
2022/11/19 03:32:19;;;;;;;14.48;8.18;;;6.00;99.90;;;;;;5048242;28;20060;-73
2022/11/19 03:34:49;;;;;;;26.70;8.15;;;6.00;99.90;;;;;;5045655;28;20086;-74
2022/11/19 03:37:19;;;;;;;18.77;8.63;;;6.00;99.90;;;;;;5035408;28;20037;-74
2022/11/19 03:39:46;;;;;;;17.58;7.85;;;6.00;99.90;;;;;;5038924;28;20316;-74
2022/11/19 03:42:15;;;;;;;17.00;7.95;;;6.00;99.90;;;;;;5028698;28;20026;-74
2022/11/19 03:44:55;;;;;;;13.77;6.93;;;6.00;99.90;;;;;;5031577;28;20059;-74
2022/11/19 03:47:29;;;;;;;16.65;6.60;;;6.00;99.90;;;;;;5028548;28;20366;-74
2022/11/19 03:50:05;;;;;;;15.05;6.53;;;6.00;99.90;;;;;;5031204;28;20496;-73
2022/11/19 03:52:32;;;;;;;18.25;6.80;;;6.00;99.90;;;;;;5026472;28;20048;-73
2022/11/19 03:54:57;;;;;;;12.18;6.32;;;6.00;99.90;;;;;;5025213;28;20049;-74
2022/11/19 03:57:25;;;;;;;14.32;6.80;;;6.00;99.90;;;;;;5044516;28;20036;-74
2022/11/19 03:59:50;;;;;;;15.20;6.35;;;6.00;99.90;;;;;;5037834;28;20036;-74
2022/11/19 04:02:16;;;;;;;14.18;6.65;;;6.00;99.90;;;;;;5039533;28;20030;-74
2022/11/19 04:04:42;;;;;;;12.10;5.85;;;6.00;99.90;;;;;;5023523;28;20033;-74
2022/11/19 04:07:13;;;;;;;15.40;5.75;;;6.00;99.90;;;;;;5037625;28;20043;-74
2022/11/19 04:09:40;;;;;;;19.20;6.38;;;6.00;99.90;;;;;;5026350;28;20401;-74
2022/11/19 04:12:10;;;;;;;13.15;6.15;;;5.90;99.90;;;;;;5035373;28;20033;-73
2022/11/19 04:14:36;;;;;;;15.88;6.30;;;6.00;99.90;;;;;;5044920;28;20107;-74
2022/11/19 04:17:01;;;;;;;13.00;5.95;;;6.00;99.90;;;;;;5041597;28;20486;-74
2022/11/19 04:19:27;;;;;;;15.23;6.13;;;6.00;99.90;;;;;;5038758;28;20077;-73
2022/11/19 04:21:53;;;;;;;15.05;6.20;;;6.00;99.90;;;;;;5041588;28;20033;-74
2022/11/19 04:24:18;;;;;;;12.52;5.53;;;6.00;99.90;;;;;;5025178;28;20057;-74
2022/11/19 04:26:44;;;;;;;13.77;6.07;;;6.00;99.90;;;;;;5028321;28;20483;-74
2022/11/19 04:29:10;;;;;;;12.85;6.05;;;6.10;99.90;;;;;;5030925;28;20482;-74
2022/11/19 04:31:35;;;;;;;13.48;5.68;;;6.00;99.90;;;;;;5031916;28;20038;-73
2022/11/19 04:34:01;;;;;;;14.50;5.72;;;6.10;99.90;;;;;;5018238;28;20482;-73
2022/11/19 04:36:27;;;;;;;14.35;5.68;;;6.10;99.90;;;;;;5030695;28;20233;-73
2022/11/19 04:38:52;;;;;;;11.15;4.90;;;6.00;99.90;;;;;;5034144;28;20360;-74
2022/11/19 04:41:18;;;;;;;10.88;5.40;;;6.00;99.90;;;;;;5041272;28;20070;-74
2022/11/19 04:43:43;;;;;;;12.13;5.95;;;6.00;99.90;;;;;;5040530;28;20501;-74
2022/11/19 04:46:09;;;;;;;12.00;5.65;;;6.00;99.90;;;;;;5040562;28;20037;-74
2022/11/19 04:48:35;;;;;;;12.23;6.00;;;6.10;99.90;;;;;;5032849;28;20117;-74
2022/11/19 04:51:00;;;;;;;12.73;5.90;;;6.00;99.90;;;;;;5044920;28;20489;-73
2022/11/19 04:53:26;;;;;;;11.65;6.07;;;6.00;99.90;;;;;;5030468;28;20037;-73
2022/11/19 04:55:52;;;;;;;12.90;6.07;;;6.00;99.90;;;;;;5035762;28;20071;-75
2022/11/19 04:58:17;;;;;;;13.75;6.20;;;6.00;99.90;;;;;;5036629;28;20481;-74
2022/11/19 05:00:43;;;;;;;18.30;6.97;;;6.00;99.90;;;;;;5048659;28;20116;-75
2022/11/19 05:03:08;;;;;;;15.25;6.47;;;6.10;99.90;;;;;;5036715;28;20036;-72
2022/11/19 05:05:34;;;;;;;16.42;6.93;;;6.00;99.90;;;;;;5044060;28;20024;-75
2022/11/19 05:08:00;;;;;;;16.73;6.78;;;6.00;99.90;;;;;;5038787;28;20025;-74
2022/11/19 05:10:25;;;;;;;12.43;6.47;;;6.00;99.90;;;;;;5037425;28;20104;-74
2022/11/19 05:12:51;;;;;;;19.05;6.93;;;6.00;99.90;;;;;;5049761;28;20028;-74
2022/11/19 05:15:16;;;;;;;17.48;7.38;;;6.00;99.90;;;;;;5037602;28;20046;-74
2022/11/19 05:17:43;;;;;;;15.68;6.63;;;6.00;99.90;;;;;;5048042;28;20036;-74
2022/11/19 05:20:09;;;;;;;13.77;5.93;;;6.00;99.90;;;;;;5046313;28;20029;-74
2022/11/19 05:22:35;;;;;;;10.23;5.30;;;6.00;99.90;;;;;;5049023;28;20452;-74
2022/11/19 05:25:00;;;;;;;12.35;5.88;;;6.00;99.90;;;;;;5042953;28;20068;-74
2022/11/19 05:27:26;;;;;;;13.15;6.40;;;6.00;99.90;;;;;;5044145;28;20366;-74
2022/11/19 05:29:51;;;;;;;10.40;5.78;;;6.00;99.90;;;;;;5046301;28;20026;-74
2022/11/19 05:32:17;;;;;;;13.68;5.97;;;6.00;99.90;;;;;;5029289;28;20505;-73
2022/11/19 05:34:43;;;;;;;14.55;5.75;;;6.00;99.90;;;;;;5043291;28;20037;-74
2022/11/19 05:37:09;;;;;;;13.90;6.10;;;5.90;99.90;;;;;;5025756;28;20034;-74
2022/11/19 05:39:34;;;;;;;13.27;6.40;;;6.00;99.90;;;;;;5042875;28;20028;-74
2022/11/19 05:42:00;;;;;;;12.35;6.03;;;5.90;99.90;;;;;;5040878;28;20033;-74
2022/11/19 05:44:25;;;;;;;15.32;6.55;;;5.90;99.90;;;;;;5046528;28;20041;-73
2022/11/19 05:46:51;;;;;;;12.70;6.47;;;5.90;99.90;;;;;;5028399;28;20083;-74
2022/11/19 05:49:17;;;;;;;13.27;6.57;;;5.90;99.90;;;;;;5032955;28;20108;-73
2022/11/19 05:51:44;;;;;;;16.58;7.00;;;6.00;99.90;;;;;;5040232;28;20509;-73
2022/11/19 05:54:10;;;;;;;13.15;6.53;;;5.90;99.90;;;;;;5040113;28;20051;-74
2022/11/19 05:56:36;;;;;;;17.77;6.90;;;6.00;99.90;;;;;;5027833;28;20033;-75
2022/11/19 05:59:01;;;;;;;14.63;6.85;;;6.00;99.90;;;;;;5031289;28;20458;-73
2022/11/19 06:01:28;;;;;;;17.05;7.15;;;6.00;99.90;;;;;;5031594;28;20124;-74
2022/11/19 06:03:54;;;;;;;14.43;7.38;;;6.00;99.90;;;;;;5040097;28;20112;-73
2022/11/19 06:06:20;;;;;;;15.45;7.85;;;6.00;99.90;;;;;;5033162;28;20431;-74
2022/11/19 06:08:46;;;;;;;17.17;7.88;;;6.00;99.90;;;;;;5050316;28;20111;-73
2022/11/19 06:11:46;;;;;;;16.75;7.60;;;6.00;99.90;;;;;;5033694;28;20029;-75
2022/11/19 06:13:58;;;;;;;17.67;7.85;;;6.00;99.90;;;;;;5031596;28;20038;-74
2022/11/19 06:16:24;;;;;;;21.75;8.13;;;6.00;99.90;;;;;;5037811;28;20033;-74
2022/11/19 06:18:49;;;;;;;19.08;7.18;;;6.00;99.90;;;;;;5038966;28;20161;-74
2022/11/19 06:21:15;;;;;;;14.90;6.78;;;6.00;99.90;;;;;;5028563;28;20037;-72
2022/11/19 06:23:41;;;;;;;13.57;6.40;;;6.00;99.90;;;;;;5037756;28;20053;-73
2022/11/19 06:26:08;;;;;;;15.70;7.00;;;5.90;99.90;;;;;;5031260;28;20033;-73
2022/11/19 06:28:33;;;;;;;13.30;6.47;;;6.00;99.90;;;;;;5026707;28;20033;-73
2022/11/19 06:30:59;;;;;;;13.65;6.55;;;6.00;99.90;;;;;;5039102;28;20102;-73
2022/11/19 06:33:24;;;;;;;17.63;7.05;;;6.00;99.90;;;;;;5045640;28;20045;-74
2022/11/19 06:35:50;;;;;;;15.38;7.32;;;6.00;99.90;;;;;;5036574;28;20475;-73
2022/11/19 06:38:16;;;;;;;13.50;6.40;;;6.00;99.90;;;;;;5045919;28;20493;-72
2022/11/19 06:40:44;;;;;;;18.15;7.97;;;6.00;99.90;;;;;;5029477;28;20030;-73
2022/11/19 06:43:10;;;;;;;14.38;6.57;;;6.00;99.90;;;;;;5019669;28;20056;-74
2022/11/19 06:45:35;;;;;;;18.45;7.22;;;6.00;99.90;;;;;;5028689;28;20033;-73
2022/11/19 06:48:01;;;;;;;17.58;8.00;;;6.00;99.90;;;;;;5037307;28;20032;-73
2022/11/19 06:50:27;;;;;;;16.27;7.45;;;6.00;99.90;;;;;;5029912;28;20022;-72
2022/11/19 06:52:53;;;;;;;15.20;7.95;;;6.00;99.90;;;;;;5009043;28;20088;-74
2022/11/19 06:55:20;;;;;;;19.40;7.65;;;6.00;99.90;;;;;;5040467;28;20045;-73
2022/11/19 06:57:45;;;;;;;16.67;8.10;;;6.10;99.90;;;;;;5049109;28;20893;-72
2022/11/19 07:00:12;;;;;;;17.10;7.32;;;6.10;99.90;;;;;;5046257;28;20032;-73
2022/11/19 07:02:37;;;;;;;17.15;8.00;;;6.00;99.90;;;;;;5048627;28;20029;-73
2022/11/19 07:05:04;;;;;;;15.30;7.03;;;6.10;99.90;;;;;;5036417;28;20386;-73
2022/11/19 07:07:30;;;;;;;16.85;6.82;;;6.10;99.90;;;;;;5032340;28;20033;-72
2022/11/19 07:09:56;;;;;;;14.65;7.15;;;6.10;99.90;;;;;;5038959;28;20112;-75
2022/11/19 07:12:22;;;;;;;17.63;7.07;;;6.10;99.90;;;;;;5027661;28;20121;-73
2022/11/19 07:14:47;;;;;;;17.33;7.10;;;6.10;99.90;;;;;;5033950;28;20064;-74
2022/11/19 07:17:13;;;;;;;16.23;7.47;;;6.10;99.90;;;;;;5027709;28;20037;-74
2022/11/19 07:19:39;;;;;;;16.23;7.57;;;6.10;99.90;;;;;;5046688;28;20036;-73
2022/11/19 07:22:05;;;;;;;17.20;8.35;;;6.00;99.90;;;;;;5040870;28;21170;-74
2022/11/19 07:24:31;;;;;;;17.52;7.55;;;6.00;99.90;;;;;;5027330;28;20037;-74
2022/11/19 07:26:56;;;;;;;19.83;8.18;;;6.00;99.90;;;;;;5033210;28;20171;-74
2022/11/19 07:29:22;;;;;;;23.25;7.82;;;6.10;99.90;;;;;;5028176;28;20022;-75
2022/11/19 07:31:49;;;;;;;19.60;8.57;;;6.00;99.90;;;;;;5017385;28;20045;-74
2022/11/19 07:34:16;;;;;;;15.95;7.93;;;6.10;99.90;;;;;;5028830;28;20490;-73
2022/11/19 07:36:42;;;;;;;15.73;7.80;;;6.10;99.90;;;;;;5039427;28;20036;-74
2022/11/19 07:39:08;;;;;;;18.25;7.55;;;6.10;99.90;;;;;;5045892;28;20037;-74
2022/11/19 07:44:18;;;;;;;15.57;7.28;;;6.10;99.90;;;;;;5047103;28;20829;-72
2022/11/19 07:46:44;;;;;;;20.98;7.40;;;6.20;99.90;;;;;;5042373;28;20033;-72
2022/11/19 07:49:10;;;;;;;12.73;7.10;;;6.10;99.90;;;;;;5045427;28;20029;-74
2022/11/19 07:51:36;;;;;;;16.73;7.43;;;6.20;99.90;;;;;;5028174;28;20029;-73
2022/11/19 07:54:02;;;;;;;19.55;8.35;;;6.20;99.90;;;;;;5040487;28;20029;-74
2022/11/19 07:56:28;;;;;;;17.10;8.27;;;6.20;99.90;;;;;;5035936;28;20041;-74
2022/11/19 07:58:53;;;;;;;15.48;7.68;;;6.20;99.90;;;;;;5027575;28;20033;-74
2022/11/19 08:01:21;;;;;;;17.50;8.30;;;6.20;99.90;;;;;;5034824;28;20033;-74
2022/11/19 08:03:48;;;;;;;14.77;7.93;;;6.30;99.90;;;;;;5049421;28;20422;-73
2022/11/19 08:06:15;;;;;;;14.73;7.78;;;6.20;99.90;;;;;;5051196;28;20025;-73
2022/11/19 08:08:42;;;;;;;20.98;7.72;;;6.20;99.90;;;;;;5033719;28;20025;-74
2022/11/19 08:11:09;;;;;;;18.80;8.27;;;6.30;99.90;;;;;;5032473;28;20025;-74
2022/11/19 08:13:35;;;;;;;15.15;8.27;;;6.20;99.90;;;;;;5031434;28;20049;-72
2022/11/19 08:16:03;;;;;;;14.05;7.55;;;6.20;99.90;;;;;;5032380;28;20034;-72
2022/11/19 08:18:29;;;;;;;21.23;8.63;;;6.20;99.90;;;;;;5033428;28;20034;-72
2022/11/19 08:21:01;;;;;;;17.75;8.52;;;6.30;99.90;;;;;;5034960;28;20036;-73
2022/11/19 08:23:27;;;;;;;15.45;7.97;;;6.20;99.90;;;;;;5049713;28;20064;-72
2022/11/19 08:25:52;;;;;;;19.35;8.02;;;6.30;99.90;;;;;;5017282;28;20030;-72
2022/11/19 08:28:18;;;;;;;18.73;7.43;;;6.30;99.90;;;;;;5040886;28;20045;-72
2022/11/19 08:30:45;;;;;;;14.63;7.25;;;6.30;99.90;;;;;;5027630;28;20120;-72
2022/11/19 08:33:11;;;;;;;17.83;7.13;;;6.30;99.90;;;;;;5039605;28;20039;-73
2022/11/19 08:35:36;;;;;;;16.52;6.35;;;6.30;99.90;;;;;;5042479;28;20385;-73
2022/11/19 08:38:02;;;;;;;14.50;6.97;;;6.30;99.90;;;;;;5049591;28;20041;-74
2022/11/19 08:40:28;;;;;;;17.88;8.30;;;6.30;99.90;;;;;;5048533;28;20034;-74
2022/11/19 08:42:59;;;;;;;17.38;7.25;;;6.40;99.90;;;;;;5042949;28;20037;-74
2022/11/19 08:45:30;;;;;;;16.27;7.82;;;6.40;99.90;;;;;;5040370;28;20083;-74
2022/11/19 08:47:57;;;;;;;15.55;8.02;;;6.40;99.90;;;;;;5036254;28;20025;-73
2022/11/19 08:50:23;;;;;;;19.83;8.10;;;6.50;99.90;;;;;;5037513;28;20056;-73
2022/11/19 08:52:56;;;;;;;15.05;8.15;;;6.50;99.90;;;;;;5047619;28;20029;-72
2022/11/19 08:55:22;;;;;;;15.00;7.57;;;6.50;99.90;;;;;;5049874;28;20481;-72
2022/11/19 08:57:48;;;;;;;15.57;7.53;;;6.60;99.90;;;;;;5040659;28;20026;-73
2022/11/19 09:00:14;;;;;;;15.63;7.60;;;6.60;99.90;;;;;;5047730;28;20025;-74
2022/11/19 09:02:40;;;;;;;15.18;7.43;;;6.60;99.90;;;;;;5057535;28;20031;-74
2022/11/19 09:05:06;;;;;;;16.05;7.50;;;6.60;99.90;;;;;;5032238;28;20592;-74
2022/11/19 09:07:32;;;;;;;13.13;7.25;;;6.60;99.90;;;;;;5032386;28;20140;-73
2022/11/19 09:09:57;;;;;;;15.38;7.90;;;6.60;99.90;;;;;;5030974;28;20056;-71
2022/11/19 09:12:23;;;;;;;14.18;7.53;;;6.60;99.90;;;;;;5030817;28;20481;-73
2022/11/19 09:14:49;;;;;;;15.52;7.72;;;6.60;99.90;;;;;;5026547;28;20072;-73
2022/11/19 09:17:15;;;;;;;13.82;7.47;;;6.60;99.90;;;;;;5040364;28;20430;-73
2022/11/19 09:19:41;;;;;;;14.32;7.18;;;6.60;99.90;;;;;;5036775;28;20031;-73
2022/11/19 09:22:06;;;;;;;13.95;6.55;;;6.60;99.90;;;;;;5045953;28;20491;-73
2022/11/19 09:24:32;;;;;;;14.52;7.13;;;6.60;99.90;;;;;;5043581;28;20036;-73
2022/11/19 09:26:58;;;;;;;12.65;6.68;;;6.60;99.90;;;;;;5041493;28;20029;-72
2022/11/19 09:29:23;;;;;;;19.23;6.88;;;6.60;99.90;;;;;;5040129;28;20436;-71
2022/11/19 09:31:49;;;;;;;14.52;6.78;;;6.60;99.90;;;;;;5014292;28;20804;-73
2022/11/19 09:34:14;;;;;;;10.82;6.03;;;6.60;99.90;;;;;;5030956;28;20502;-72
2022/11/19 09:36:40;;;;;;;14.18;6.70;;;6.70;99.90;;;;;;5030141;28;20029;-73
2022/11/19 09:39:06;;;;;;;14.88;6.60;;;6.80;99.90;;;;;;5029574;28;20109;-72
2022/11/19 09:42:16;;;;;;;12.43;5.65;;;6.90;99.90;;;;;;5030160;28;20108;-73
2022/11/19 09:45:18;;;;;;;12.25;6.18;;;7.00;99.90;;;;;;5007518;28;20454;-73
2022/11/19 09:47:58;;;;;;;11.77;5.78;;;7.10;99.90;;;;;;5007544;28;20490;-73
2022/11/19 09:50:30;;;;;;;11.50;6.00;;;7.20;99.90;;;;;;5010509;28;20041;-72
2022/11/19 09:53:19;;;;;;;11.85;5.43;;;7.20;99.90;;;;;;5011109;28;20049;-73
2022/11/19 09:55:47;;;;;;;11.07;5.53;;;7.30;99.90;;;;;;5010142;28;20165;-73
2022/11/19 09:58:29;;;;;;;11.07;5.60;;;7.20;99.90;;;;;;5010505;28;20509;-74
2022/11/19 10:00:55;;;;;;;11.95;5.85;;;7.20;99.90;;;;;;5010896;28;20084;-73
2022/11/19 10:03:24;;;;;;;9.60;5.38;;;7.30;99.90;;;;;;5010721;28;20034;-74
2022/11/19 10:06:14;;;;;;;8.75;4.70;;;7.30;99.90;;;;;;5013731;28;20064;-73
2022/11/19 10:09:04;;;;;;;7.23;3.93;;;7.20;99.90;;;;;;5029471;28;20022;-73
2022/11/19 10:11:57;;;;;;;8.30;4.35;;;7.20;99.90;;;;;;5029569;28;20300;-71
2022/11/19 10:14:54;;;;;;;9.80;4.05;;;7.20;99.90;;;;;;5030240;28;20030;-71
2022/11/19 10:17:38;;;;;;;7.00;3.50;;;7.30;99.90;;;;;;5029632;28;20033;-72
2022/11/19 10:20:16;;;;;;;8.07;3.72;;;7.40;99.90;;;;;;5030273;28;20025;-72
2022/11/19 10:23:18;;;;;;;7.80;3.70;;;7.50;99.90;;;;;;5028254;28;20041;-73
2022/11/19 10:25:46;;;;;;;7.20;3.42;;;7.50;99.90;;;;;;5018977;28;20144;-73
2022/11/19 10:28:21;;;;;;;7.28;3.50;;;7.50;99.90;;;;;;5029996;28;20071;-73
2022/11/19 10:30:49;;;;;;;10.15;4.30;;;7.30;99.90;;;;;;5029176;28;20096;-72
2022/11/19 10:33:36;;;;;;;8.15;4.65;;;7.20;99.90;;;;;;5029883;28;20029;-72
2022/11/19 10:36:06;;;;;;;7.65;4.20;;;7.20;99.90;;;;;;5029932;28;20025;-73
2022/11/19 10:38:50;;;;;;;5.97;3.15;;;7.10;99.90;;;;;;5029239;28;20109;-73
2022/11/19 10:41:31;;;;;;;8.55;4.30;;;7.00;99.90;;;;;;5028714;28;20425;-73
2022/11/19 10:44:35;;;;;;;9.43;3.90;;;7.00;99.90;;;;;;5029914;28;20032;-73
2022/11/19 10:47:00;;;;;;;9.80;4.32;;;7.00;99.90;;;;;;5029353;28;20060;-72
2022/11/19 10:49:26;;;;;;;8.30;4.10;;;7.00;99.90;;;;;;5029174;28;20044;-73
2022/11/19 10:51:51;;;;;;;8.00;4.47;;;6.90;99.90;;;;;;5028910;28;20104;-73
2022/11/19 10:54:29;;;;;;;8.93;4.30;;;6.90;99.90;;;;;;5029464;28;20470;-73
2022/11/19 10:56:55;;;;;;;12.93;4.32;;;6.90;99.90;;;;;;5028180;28;20021;-72
2022/11/19 10:59:25;;;;;;;8.57;4.13;;;6.90;99.90;;;;;;5029167;28;20029;-73
2022/11/19 11:01:56;;;;;;;8.48;4.28;;;6.90;99.90;;;;;;5028631;28;20895;-72
2022/11/19 11:04:27;;;;;;;6.88;3.67;;;7.00;99.90;;;;;;5029371;28;20061;-73
2022/11/19 11:07:00;;;;;;;9.38;4.18;;;6.90;99.90;;;;;;5028895;28;20029;-73
2022/11/19 11:09:32;;;;;;;8.15;4.00;;;6.90;99.90;;;;;;5029238;28;20029;-72
2022/11/19 11:14:58;;;;;;;8.57;3.58;;;7.00;99.90;;;;;;5027769;28;20095;-71
2022/11/19 11:17:26;;;;;;;7.32;3.53;;;7.00;99.90;;;;;;5009650;28;20037;-73
2022/11/19 11:20:05;;;;;;;7.70;3.50;;;7.00;99.90;;;;;;5021205;28;20029;-73
2022/11/19 11:22:32;;;;;;;8.73;3.85;;;7.10;99.90;;;;;;5024211;28;20264;-73
2022/11/19 11:24:59;;;;;;;14.70;3.70;;;7.10;99.90;;;;;;5022603;28;20399;-71
2022/11/19 11:27:32;;;;;;;6.40;3.53;;;7.10;99.90;;;;;;5033051;28;20033;-72
2022/11/19 11:30:13;;;;;;;8.18;3.30;;;7.10;99.90;;;;;;5014402;28;20687;-69
2022/11/19 11:32:39;;;;;;;;;;;7.10;99.90;;;;;;5037051;28;20037;-71
2022/11/19 11:35:25;;;;;;;6.28;3.55;;;7.00;99.90;;;;;;5019956;28;19921;-70
2022/11/19 11:37:51;;;;;;;8.13;3.90;;;7.10;99.90;;;;;;5017988;28;20030;-71
2022/11/19 11:40:23;;;;;;;7.90;3.70;;;7.10;99.90;;;;;;5029395;28;20083;-71
2022/11/19 11:42:50;;;;;;;8.40;3.50;;;7.10;99.90;;;;;;5029918;28;20034;-70
2022/11/19 11:45:32;;;;;;;5.85;3.53;;;7.00;99.90;;;;;;5018875;28;20486;-71
2022/11/19 11:48:15;;;;;;;9.95;3.85;;;7.00;99.90;;;;;;5033350;28;20037;-71
2022/11/19 11:50:44;;;;;;;7.97;3.75;;;7.00;99.90;;;;;;5021643;28;20079;-70
2022/11/19 11:53:13;;;;;;;7.25;3.60;;;7.00;99.90;;;;;;5034551;28;20037;-72
2022/11/19 11:55:39;;;;;;;8.57;3.70;;;7.00;99.90;;;;;;5048729;28;20049;-70
2022/11/19 11:58:35;;;;;;;7.50;3.40;;;6.90;99.90;;;;;;5040716;28;20577;-69
2022/11/19 12:01:17;;;;;;;8.30;3.83;;;6.90;99.90;;;;;;5025654;28;20041;-72
2022/11/19 12:03:55;;;;;;;11.05;4.68;;;7.00;99.90;;;;;;5031958;28;20428;-71
2022/11/19 12:06:30;;;;;;;9.98;4.07;;;7.00;99.90;;;;;;5032182;28;20033;-70
2022/11/19 12:09:08;;;;;;;8.93;5.13;;;7.00;99.90;;;;;;5029922;28;20041;-71
2022/11/19 12:11:54;;;;;;;9.40;4.40;;;7.10;99.90;;;;;;5033162;28;20076;-71
2022/11/19 12:14:34;;;;;;;10.60;4.15;;;7.10;99.90;;;;;;5033239;28;20512;-72
2022/11/19 12:17:37;;;;;;;11.27;3.92;;;7.00;99.90;;;;;;5033154;28;20029;-71
2022/11/19 12:20:17;;;;;;;7.65;3.95;;;7.00;99.90;;;;;;5035935;28;20029;-74
2022/11/19 12:23:16;;;;;;;13.93;5.40;;;7.10;99.90;;;;;;5036569;28;20406;-73
2022/11/19 12:26:22;;;;;;;12.15;4.15;;;7.00;99.90;;;;;;5046196;28;20033;-73
2022/11/19 12:29:02;;;;;;;8.30;3.70;;;7.00;99.90;;;;;;5025770;28;20038;-73
2022/11/19 12:31:45;;;;;;;;;;;7.00;99.90;;;;;;5034704;28;20033;-73
2022/11/19 12:34:20;;;;;;;13.55;4.10;;;7.00;99.90;;;;;;5028248;28;19917;-73
2022/11/19 12:37:04;;;;;;;9.82;3.85;;;7.00;99.90;;;;;;5034102;28;20572;-74
2022/11/19 12:39:44;;;;;;;6.75;3.58;;;7.00;99.90;;;;;;5016001;28;20049;-73
2022/11/19 12:42:15;;;;;;;11.63;3.80;;;7.00;99.90;;;;;;5026621;28;20587;-73
2022/11/19 12:44:53;;;;;;;9.00;3.75;;;7.00;99.90;;;;;;5033253;28;20866;-74
2022/11/19 12:47:41;;;;;;;6.25;3.10;;;7.00;99.90;;;;;;5034911;28;20552;-73
2022/11/19 12:50:14;;;;;;;10.35;3.70;;;7.00;99.90;;;;;;5034234;28;20029;-72
2022/11/19 12:53:01;;;;;;;8.18;3.97;;;7.00;99.90;;;;;;5029422;28;20040;-73
2022/11/19 12:55:57;;;;;;;6.90;3.80;;;7.10;99.90;;;;;;5029832;28;20124;-73
2022/11/19 12:58:26;;;;;;;9.10;3.65;;;7.10;99.90;;;;;;5030785;28;20120;-72
2022/11/19 13:01:03;;;;;;;7.55;3.55;;;7.10;99.90;;;;;;5033710;28;20049;-73
2022/11/19 13:03:34;;;;;;;7.05;3.60;;;7.20;99.90;;;;;;5033009;28;20091;-73
2022/11/19 13:06:06;;;;;;;7.07;3.30;;;7.20;99.90;;;;;;5030865;28;20057;-73
2022/11/19 13:08:42;;;;;;;6.90;3.38;;;7.30;99.90;;;;;;5032997;28;20064;-73
2022/11/19 13:11:15;;;;;;;8.10;3.35;;;7.30;99.90;;;;;;5030609;28;20052;-73
2022/11/19 13:13:46;;;;;;;5.78;3.20;;;7.30;99.90;;;;;;5032149;28;20073;-74
2022/11/19 13:16:16;;;;;;;5.80;2.80;;;7.30;99.90;;;;;;5034459;28;20049;-73
2022/11/19 13:18:45;;;;;;;8.77;2.75;;;7.30;99.90;;;;;;5033506;28;20472;-73
2022/11/19 13:21:22;;;;;;;5.70;2.92;;;7.20;99.90;;;;;;5031228;28;20175;-72
2022/11/19 13:23:49;;;;;;;6.18;2.63;;;7.20;99.90;;;;;;5050065;28;20053;-72
2022/11/19 13:26:19;;;;;;;7.25;2.53;;;7.20;99.90;;;;;;5050868;28;20605;-72
2022/11/19 13:29:12;;;;;;;6.10;2.83;;;7.20;99.90;;;;;;5050284;28;20029;-73
2022/11/19 13:31:47;;;;;;;7.80;3.28;;;7.20;99.90;;;;;;5050334;28;20468;-72